createdAt,value
2023-02-20T00:01:57.016Z,15.93
2023-02-20T00:04:25.698Z,10.77
2023-02-20T00:06:53.727Z,11.03
2023-02-20T00:09:21.626Z,14.20
2023-02-20T00:11:49.676Z,12.87
2023-02-20T00:14:17.440Z,13.07
2023-02-20T00:16:48.388Z,15.37
2023-02-20T00:19:16.912Z,14.80
2023-02-20T00:21:52.955Z,17.50
2023-02-20T00:24:21.514Z,14.90
2023-02-20T00:26:53.748Z,16.23
2023-02-20T00:29:25.803Z,14.23
2023-02-20T00:31:59.090Z,17.03
2023-02-20T00:34:30.285Z,15.73
2023-02-20T00:36:58.107Z,15.10
2023-02-20T00:39:25.730Z,20.53
2023-02-20T00:41:53.571Z,15.03
2023-02-20T00:44:21.251Z,14.60
2023-02-20T00:46:49.160Z,16.43
2023-02-20T00:49:17.486Z,15.63
2023-02-20T00:51:49.650Z,16.23
2023-02-20T00:54:18.159Z,15.37
2023-02-20T00:56:46.184Z,13.80
2023-02-20T00:59:14.183Z,17.77
2023-02-20T01:01:42.298Z,17.10
2023-02-20T01:04:10.257Z,15.83
2023-02-20T01:06:38.133Z,19.17
2023-02-20T01:09:06.077Z,15.27
2023-02-20T01:11:34.307Z,19.40
2023-02-20T01:14:02.205Z,20.87
2023-02-20T01:16:31.518Z,20.07
2023-02-20T01:18:59.507Z,23.20
2023-02-20T01:21:27.331Z,18.93
2023-02-20T01:23:55.314Z,22.83
2023-02-20T01:26:23.007Z,22.33
2023-02-20T01:28:52.008Z,18.50
2023-02-20T01:31:20.012Z,20.83
2023-02-20T01:33:48.855Z,21.80
2023-02-20T01:36:16.753Z,19.50
2023-02-20T01:38:44.556Z,20.93
2023-02-20T01:41:13.167Z,19.43
2023-02-20T01:43:41.973Z,18.70
2023-02-20T01:46:28.208Z,18.23
2023-02-20T01:49:25.235Z,17.60
2023-02-20T01:52:28.806Z,23.60
2023-02-20T01:55:29.547Z,22.00
2023-02-20T01:58:16.004Z,21.23
2023-02-20T02:00:44.705Z,19.30
2023-02-20T02:03:35.038Z,19.10
2023-02-20T02:06:10.056Z,20.20
2023-02-20T02:08:45.149Z,19.30
2023-02-20T02:11:25.628Z,17.77
2023-02-20T02:13:53.796Z,19.30
2023-02-20T02:17:13.600Z,17.30
2023-02-20T02:20:10.167Z,20.50
2023-02-20T02:23:54.942Z,20.30
2023-02-20T02:27:52.372Z,18.33
2023-02-20T02:30:45.116Z,21.67
2023-02-20T02:33:35.607Z,19.13
2023-02-20T02:37:30.103Z,20.27
2023-02-20T02:40:49.215Z,24.53
2023-02-20T02:43:57.740Z,19.00
2023-02-20T02:47:00.482Z,25.33
2023-02-20T02:49:52.524Z,26.80
2023-02-20T02:52:45.300Z,22.93
2023-02-20T02:55:25.881Z,25.50
2023-02-20T02:57:56.333Z,25.27
2023-02-20T03:01:02.166Z,36.87
2023-02-20T03:03:40.705Z,26.93
2023-02-20T03:06:35.016Z,26.73
2023-02-20T03:09:25.913Z,30.37
2023-02-20T03:11:59.177Z,29.83
2023-02-20T03:15:34.140Z,25.23
2023-02-20T03:18:39.720Z,26.67
2023-02-20T03:21:21.993Z,26.93
2023-02-20T03:24:02.122Z,24.80
2023-02-20T03:26:38.378Z,24.13
2023-02-20T03:29:28.154Z,30.07
2023-02-20T03:32:30.753Z,28.10
2023-02-20T03:35:21.320Z,27.23
2023-02-20T03:38:10.857Z,27.80
2023-02-20T03:41:00.687Z,28.83
2023-02-20T03:43:34.720Z,28.80
2023-02-20T03:46:22.969Z,26.43
2023-02-20T03:49:07.311Z,33.37
2023-02-20T03:51:43.017Z,28.53
2023-02-20T03:54:20.230Z,25.20
2023-02-20T03:57:01.794Z,36.90
2023-02-20T03:59:47.254Z,30.97
2023-02-20T04:02:45.792Z,28.73
2023-02-20T04:05:28.509Z,31.03
2023-02-20T04:08:23.043Z,33.07
2023-02-20T04:11:06.263Z,27.67
2023-02-20T04:13:35.592Z,31.47
2023-02-20T04:16:04.507Z,42.77
2023-02-20T04:18:34.648Z,31.73
2023-02-20T04:21:26.789Z,37.23
2023-02-20T04:24:11.669Z,29.00
2023-02-20T04:26:40.570Z,39.03
2023-02-20T04:29:09.528Z,28.23
2023-02-20T04:31:39.704Z,24.37
2023-02-20T04:34:09.805Z,25.67
2023-02-20T04:36:38.323Z,29.70
2023-02-20T04:39:06.762Z,24.70
2023-02-20T04:41:35.168Z,30.97
2023-02-20T04:44:21.701Z,29.10
2023-02-20T04:46:51.368Z,26.93
2023-02-20T04:49:21.294Z,28.87
2023-02-20T04:51:53.191Z,34.03
2023-02-20T04:54:23.171Z,28.50
2023-02-20T04:56:51.932Z,25.20
2023-02-20T04:59:20.664Z,28.30
2023-02-20T05:01:52.230Z,26.57
2023-02-20T05:04:22.180Z,24.90
2023-02-20T05:06:54.979Z,24.63
2023-02-20T05:09:24.866Z,26.50
2023-02-20T05:11:53.581Z,17.70
2023-02-20T05:14:22.833Z,23.93
2023-02-20T05:16:51.466Z,19.07
2023-02-20T05:19:22.276Z,26.77
2023-02-20T05:22:08.746Z,24.90
2023-02-20T05:24:36.590Z,25.50
2023-02-20T05:27:04.861Z,30.73
2023-02-20T05:29:32.862Z,23.57
2023-02-20T05:32:00.734Z,27.13
2023-02-20T05:34:28.517Z,26.83
2023-02-20T05:36:57.516Z,21.47
2023-02-20T05:39:25.211Z,25.97
2023-02-20T05:41:53.354Z,24.30
2023-02-20T05:44:21.387Z,23.67
2023-02-20T05:46:49.502Z,20.17
2023-02-20T05:49:18.701Z,23.63
2023-02-20T05:51:46.691Z,27.87
2023-02-20T05:54:14.543Z,32.40
2023-02-20T05:56:45.832Z,27.33
2023-02-20T05:59:19.219Z,21.93
2023-02-20T06:01:51.319Z,27.27
2023-02-20T06:04:19.875Z,25.90
2023-02-20T06:06:47.888Z,29.03
2023-02-20T06:09:17.036Z,19.80
2023-02-20T06:11:56.646Z,28.77
2023-02-20T06:14:27.706Z,25.50
2023-02-20T06:16:59.957Z,25.23
2023-02-20T06:19:27.747Z,29.47
2023-02-20T06:21:58.717Z,28.40
2023-02-20T06:24:27.105Z,26.87
2023-02-20T06:26:55.115Z,27.67
2023-02-20T06:29:23.485Z,27.13
2023-02-20T06:31:51.341Z,29.57
2023-02-20T06:34:19.914Z,30.90
2023-02-20T06:36:47.882Z,34.13
2023-02-20T06:39:16.550Z,37.07
2023-02-20T06:41:45.403Z,33.70
2023-02-20T06:44:13.266Z,30.57
2023-02-20T06:46:41.214Z,37.43
2023-02-20T06:49:10.682Z,38.57
2023-02-20T06:51:40.398Z,35.17
2023-02-20T06:54:12.331Z,52.00
2023-02-20T06:56:40.185Z,36.93
2023-02-20T06:59:09.388Z,34.33
2023-02-20T07:01:43.876Z,36.50
2023-02-20T07:04:28.993Z,38.80
2023-02-20T07:06:57.187Z,47.70
2023-02-20T07:09:25.464Z,41.70
2023-02-20T07:11:58.568Z,39.33
2023-02-20T07:14:26.595Z,38.23
2023-02-20T07:16:54.327Z,37.73
2023-02-20T07:19:22.552Z,44.57
2023-02-20T07:21:51.177Z,37.70
2023-02-20T07:24:19.439Z,40.03
2023-02-20T07:26:48.688Z,40.13
2023-02-20T07:29:16.574Z,42.90
2023-02-20T07:31:44.500Z,37.67
2023-02-20T07:34:12.816Z,29.33
2023-02-20T07:36:43.391Z,34.20
2023-02-20T07:39:14.215Z,35.47
2023-02-20T07:41:43.285Z,33.90
2023-02-20T07:44:38.048Z,37.97
2023-02-20T07:47:06.017Z,35.20
2023-02-20T07:49:34.011Z,37.90
2023-02-20T07:52:01.854Z,33.70
2023-02-20T07:54:29.977Z,34.33
2023-02-20T07:56:57.826Z,34.53
2023-02-20T07:59:25.640Z,24.30
2023-02-20T08:01:53.638Z,31.00
2023-02-20T08:04:21.450Z,28.40
2023-02-20T08:06:49.208Z,29.70
2023-02-20T08:09:17.326Z,32.90
2023-02-20T08:11:45.147Z,24.20
2023-02-20T08:14:16.179Z,28.47
2023-02-20T08:16:44.019Z,30.23
2023-02-20T08:19:11.888Z,24.97
2023-02-20T08:21:39.636Z,30.57
2023-02-20T08:24:08.366Z,32.23
2023-02-20T08:26:42.782Z,30.73
2023-02-20T08:29:10.762Z,30.80
2023-02-20T08:31:39.202Z,25.80
2023-02-20T08:34:07.041Z,27.87
2023-02-20T08:36:35.476Z,32.80
2023-02-20T08:39:03.964Z,29.60
2023-02-20T08:41:32.278Z,33.70
2023-02-20T08:44:00.335Z,32.57
2023-02-20T08:46:27.972Z,37.23
2023-02-20T08:48:56.019Z,26.67
2023-02-20T08:51:23.884Z,26.17
2023-02-20T08:53:51.693Z,25.43
2023-02-20T08:56:22.432Z,37.83
2023-02-20T08:58:50.253Z,30.37
2023-02-20T09:01:17.997Z,24.57
2023-02-20T09:03:45.977Z,32.23
2023-02-20T09:06:14.173Z,37.53
2023-02-20T09:08:42.121Z,32.23
2023-02-20T09:11:12.176Z,27.83
2023-02-20T09:13:49.728Z,29.43
2023-02-20T09:16:23.693Z,28.60
2023-02-20T09:18:52.315Z,33.50
2023-02-20T09:21:21.036Z,33.23
2023-02-20T09:23:49.245Z,30.20
2023-02-20T09:26:17.195Z,26.77
2023-02-20T09:28:45.130Z,29.70
2023-02-20T09:31:12.962Z,35.40
2023-02-20T09:33:51.081Z,23.33
2023-02-20T09:36:19.752Z,30.10
2023-02-20T09:38:47.910Z,28.40
2023-02-20T09:41:52.297Z,28.40
2023-02-20T09:45:17.612Z,28.70
2023-02-20T09:48:31.984Z,27.93
2023-02-20T09:51:14.763Z,25.57
2023-02-20T09:54:21.977Z,21.97
2023-02-20T09:57:02.166Z,23.17
2023-02-20T09:59:50.971Z,24.53
2023-02-20T10:02:31.652Z,20.93
2023-02-20T10:05:21.506Z,23.87
2023-02-20T10:07:52.897Z,20.60
2023-02-20T10:10:39.490Z,20.73
2023-02-20T10:14:01.119Z,24.60
2023-02-20T10:16:46.679Z,24.63
2023-02-20T10:19:22.831Z,20.10
2023-02-20T10:22:20.163Z,22.43
2023-02-20T10:25:27.080Z,20.17
2023-02-20T10:28:20.253Z,21.50
2023-02-20T10:31:34.064Z,22.73
2023-02-20T10:34:25.612Z,23.27
2023-02-20T10:37:14.248Z,24.50
2023-02-20T10:40:18.264Z,27.17
2023-02-20T10:43:12.695Z,27.93
2023-02-20T10:46:15.899Z,25.07
2023-02-20T10:48:45.661Z,22.43
2023-02-20T10:51:40.104Z,22.53
2023-02-20T10:54:26.209Z,19.10
2023-02-20T10:57:21.022Z,21.43
2023-02-20T11:00:25.675Z,20.57
2023-02-20T11:03:13.114Z,22.73
2023-02-20T11:05:53.910Z,18.93
2023-02-20T11:08:22.233Z,25.37
2023-02-20T11:11:00.227Z,24.03
2023-02-20T11:13:28.183Z,17.43
2023-02-20T11:15:58.964Z,16.70
2023-02-20T11:18:41.985Z,21.37
2023-02-20T11:21:10.080Z,16.73
2023-02-20T11:23:44.854Z,19.37
2023-02-20T11:26:24.629Z,24.47
2023-02-20T11:29:17.279Z,19.80
2023-02-20T11:31:48.187Z,19.20
2023-02-20T11:34:31.323Z,19.37
2023-02-20T11:37:07.884Z,18.00
2023-02-20T11:39:37.101Z,21.37
2023-02-20T11:42:20.943Z,18.50
2023-02-20T11:45:31.194Z,21.63
2023-02-20T11:48:21.733Z,22.17
2023-02-20T11:50:54.774Z,21.17
2023-02-20T11:53:35.825Z,30.53
2023-02-20T11:56:19.117Z,29.47
2023-02-20T11:58:48.046Z,23.83
2023-02-20T12:01:38.268Z,25.73
2023-02-20T12:04:25.115Z,21.37
2023-02-20T12:06:54.198Z,22.27
2023-02-20T12:09:30.916Z,22.47
2023-02-20T12:11:58.794Z,27.50
2023-02-20T12:14:26.791Z,25.27
2023-02-20T12:17:42.972Z,24.30
2023-02-20T12:20:26.302Z,22.73
2023-02-20T12:24:16.972Z,26.87
2023-02-20T12:27:04.575Z,23.90
2023-02-20T12:29:58.005Z,23.33
2023-02-20T12:33:03.127Z,22.23
2023-02-20T12:36:35.833Z,23.00
2023-02-20T12:39:54.123Z,21.03
2023-02-20T12:43:02.125Z,33.13
2023-02-20T12:45:56.397Z,18.70
2023-02-20T12:49:33.074Z,22.93
2023-02-20T12:52:39.288Z,19.60
2023-02-20T12:55:38.355Z,17.07
2023-02-20T12:59:05.402Z,18.47
2023-02-20T13:01:40.202Z,18.00
2023-02-20T13:04:57.107Z,20.00
2023-02-20T13:07:57.541Z,19.17
2023-02-20T13:10:43.874Z,19.97
2023-02-20T13:13:12.617Z,17.87
2023-02-20T13:16:17.266Z,19.13
2023-02-20T13:19:24.743Z,23.33
2023-02-20T13:21:55.478Z,22.50
2023-02-20T13:24:23.102Z,23.33
2023-02-20T13:27:06.878Z,27.33
2023-02-20T13:30:34.312Z,23.47
2023-02-20T13:33:37.391Z,24.17
2023-02-20T13:36:36.214Z,22.00
2023-02-20T13:39:23.423Z,29.30
2023-02-20T13:41:59.828Z,25.70
2023-02-20T13:44:36.288Z,26.07
2023-02-20T13:47:25.736Z,22.93
2023-02-20T13:49:59.982Z,27.90
2023-02-20T13:52:40.138Z,31.97
2023-02-20T13:55:11.127Z,35.50
2023-02-20T13:58:02.541Z,39.50
2023-02-20T14:00:55.568Z,36.63
2023-02-20T14:03:34.888Z,33.83
2023-02-20T14:06:12.048Z,32.77
2023-02-20T14:08:49.582Z,33.67
2023-02-20T14:11:39.799Z,38.20
2023-02-20T14:14:35.035Z,30.83
2023-02-20T14:17:21.972Z,37.87
2023-02-20T14:20:14.029Z,29.30
2023-02-20T14:22:42.946Z,29.83
2023-02-20T14:25:24.340Z,30.53
2023-02-20T14:27:53.026Z,28.40
2023-02-20T14:30:28.777Z,26.60
2023-02-20T14:32:58.574Z,36.27
2023-02-20T14:36:11.873Z,34.50
2023-02-20T14:39:38.767Z,28.77
2023-02-20T14:42:23.652Z,27.47
2023-02-20T14:45:13.821Z,32.23
2023-02-20T14:47:58.989Z,25.97
2023-02-20T14:50:36.749Z,27.27
2023-02-20T14:53:21.426Z,28.47
2023-02-20T14:55:52.553Z,24.30
2023-02-20T14:58:23.733Z,31.07
2023-02-20T15:00:53.580Z,28.30
2023-02-20T15:03:31.854Z,25.83
2023-02-20T15:06:07.348Z,27.97
2023-02-20T15:08:38.400Z,26.53
2023-02-20T15:11:16.245Z,37.30
2023-02-20T15:13:47.930Z,31.30
2023-02-20T15:16:30.155Z,29.30
2023-02-20T15:18:59.262Z,32.77
2023-02-20T15:21:43.356Z,37.17
2023-02-20T15:24:33.546Z,35.27
2023-02-20T15:27:24.641Z,32.50
2023-02-20T15:30:18.144Z,40.07
2023-02-20T15:32:53.765Z,37.87
2023-02-20T15:35:30.110Z,36.00
2023-02-20T15:38:05.415Z,39.97
2023-02-20T15:40:35.273Z,38.53
2023-02-20T15:43:13.444Z,31.37
2023-02-20T15:45:55.918Z,37.50
2023-02-20T15:48:24.240Z,38.07
2023-02-20T15:50:53.391Z,36.50
2023-02-20T15:53:31.250Z,38.53
2023-02-20T15:56:02.502Z,41.87
2023-02-20T15:58:40.230Z,34.00
2023-02-20T16:01:08.050Z,36.13
2023-02-20T16:03:50.468Z,35.90
2023-02-20T16:06:22.951Z,42.07
2023-02-20T16:08:53.322Z,37.83
2023-02-20T16:11:30.342Z,45.40
2023-02-20T16:14:02.889Z,31.83
2023-02-20T16:16:42.579Z,34.00
2023-02-20T16:19:33.415Z,33.93
2023-02-20T16:22:11.291Z,31.87
2023-02-20T16:24:40.360Z,35.20
2023-02-20T16:27:38.476Z,35.50
2023-02-20T16:30:08.172Z,34.60
2023-02-20T16:32:36.121Z,29.27
2023-02-20T16:35:05.607Z,37.00
2023-02-20T16:37:33.699Z,34.67
2023-02-20T16:40:01.740Z,26.93
2023-02-20T16:42:39.083Z,33.80
2023-02-20T16:45:19.211Z,29.23
2023-02-20T16:47:56.418Z,28.07
2023-02-20T16:50:30.414Z,27.73
2023-02-20T16:53:05.738Z,29.00
2023-02-20T16:55:38.017Z,29.40
2023-02-20T16:58:06.933Z,32.93
2023-02-20T17:00:55.169Z,31.03
2023-02-20T17:03:25.444Z,27.23
2023-02-20T17:05:59.509Z,26.27
2023-02-20T17:08:29.359Z,32.63
2023-02-20T17:11:00.201Z,24.03
2023-02-20T17:13:28.455Z,28.43
2023-02-20T17:15:56.421Z,30.80
2023-02-20T17:18:24.271Z,25.17
2023-02-20T17:20:52.755Z,28.60
2023-02-20T17:23:20.613Z,24.70
2023-02-20T17:25:48.898Z,29.43
2023-02-20T17:28:17.601Z,28.33
2023-02-20T17:30:47.834Z,31.20
2023-02-20T17:33:16.181Z,30.93
2023-02-20T17:35:45.939Z,36.27
2023-02-20T17:38:14.216Z,32.60
2023-02-20T17:40:42.260Z,31.30
2023-02-20T17:43:10.465Z,32.27
2023-02-20T17:45:39.223Z,35.87
2023-02-20T17:48:08.580Z,31.83
2023-02-20T17:50:36.975Z,38.27
2023-02-20T17:53:04.746Z,28.17
2023-02-20T17:55:34.052Z,36.93
2023-02-20T17:58:02.869Z,30.87
2023-02-20T18:00:34.391Z,30.73
2023-02-20T18:03:02.470Z,30.83
2023-02-20T18:05:30.327Z,26.60
2023-02-20T18:07:58.230Z,31.17
2023-02-20T18:10:28.508Z,34.40
2023-02-20T18:13:05.434Z,31.93
2023-02-20T18:15:37.416Z,31.33
2023-02-20T18:18:06.405Z,34.20
2023-02-20T18:20:34.335Z,38.83
2023-02-20T18:23:02.715Z,31.27
2023-02-20T18:25:40.494Z,31.27
2023-02-20T18:28:11.813Z,33.47
2023-02-20T18:30:40.919Z,32.33
2023-02-20T18:33:09.440Z,34.30
2023-02-20T18:35:38.160Z,39.07
2023-02-20T18:38:07.121Z,34.90
2023-02-20T18:40:35.876Z,37.70
2023-02-20T18:43:03.791Z,32.40
2023-02-20T18:45:31.827Z,39.57
2023-02-20T18:47:59.839Z,32.23
2023-02-20T18:50:27.875Z,31.70
2023-02-20T18:52:56.121Z,33.37
2023-02-20T18:55:24.407Z,35.80
2023-02-20T18:57:54.060Z,38.13
2023-02-20T19:00:31.563Z,33.13
2023-02-20T19:03:03.075Z,27.23
2023-02-20T19:05:31.192Z,29.63
2023-02-20T19:08:00.320Z,34.80
2023-02-20T19:10:28.618Z,40.37
2023-02-20T19:12:57.765Z,37.90
2023-02-20T19:15:26.448Z,29.47
2023-02-20T19:17:55.045Z,32.23
2023-02-20T19:20:29.488Z,26.20
2023-02-20T19:23:00.623Z,30.40
2023-02-20T19:25:28.852Z,29.30
2023-02-20T19:27:56.846Z,28.77
2023-02-20T19:30:24.809Z,27.03
2023-02-20T19:32:52.609Z,30.37
2023-02-20T19:35:20.760Z,26.20
2023-02-20T19:37:48.677Z,32.57
2023-02-20T19:40:16.645Z,31.40
2023-02-20T19:42:44.504Z,35.03
2023-02-20T19:45:12.569Z,34.40
2023-02-20T19:47:40.570Z,34.30
2023-02-20T19:50:10.226Z,33.20
2023-02-20T19:52:38.096Z,30.70
2023-02-20T19:55:06.697Z,34.67
2023-02-20T19:57:34.747Z,26.87
2023-02-20T20:00:02.601Z,35.80
2023-02-20T20:02:40.816Z,31.70
2023-02-20T20:05:08.935Z,36.73
2023-02-20T20:07:36.779Z,36.90
2023-02-20T20:10:08.430Z,39.13
2023-02-20T20:12:49.373Z,32.10
2023-02-20T20:15:26.066Z,35.87
2023-02-20T20:18:00.670Z,34.43
2023-02-20T20:20:33.186Z,32.20
2023-02-20T20:23:05.808Z,29.00
2023-02-20T20:25:33.810Z,35.40
2023-02-20T20:28:02.897Z,32.93
2023-02-20T20:30:32.941Z,37.73
2023-02-20T20:33:01.524Z,32.80
2023-02-20T20:35:30.974Z,34.73
2023-02-20T20:38:00.701Z,39.13
2023-02-20T20:40:30.345Z,34.87
2023-02-20T20:42:59.476Z,37.17
2023-02-20T20:45:27.619Z,42.30
2023-02-20T20:47:55.571Z,37.30
2023-02-20T20:50:29.091Z,42.40
2023-02-20T20:53:01.163Z,37.07
2023-02-20T20:55:30.340Z,34.43
2023-02-20T20:57:58.339Z,38.80
2023-02-20T21:00:34.694Z,34.87
2023-02-20T21:03:11.937Z,38.20
2023-02-20T21:05:39.754Z,35.97
2023-02-20T21:08:08.298Z,43.87
2023-02-20T21:10:39.210Z,38.90
2023-02-20T21:13:07.036Z,35.37
2023-02-20T21:15:35.752Z,39.87
2023-02-20T21:18:05.234Z,37.67
2023-02-20T21:20:35.549Z,35.30
2023-02-20T21:23:05.013Z,37.00
2023-02-20T21:25:32.885Z,36.63
2023-02-20T21:28:00.628Z,27.67
2023-02-20T21:30:28.821Z,31.53
2023-02-20T21:32:57.195Z,33.20
2023-02-20T21:35:26.327Z,31.10
2023-02-20T21:37:55.092Z,38.17
2023-02-20T21:40:23.231Z,35.27
2023-02-20T21:43:09.741Z,43.83
2023-02-20T21:45:37.619Z,35.90
2023-02-20T21:48:06.134Z,40.47
2023-02-20T21:50:34.086Z,40.13
2023-02-20T21:53:02.310Z,42.97
2023-02-20T21:55:32.592Z,40.93
2023-02-20T21:58:00.669Z,48.33
2023-02-20T22:00:28.371Z,38.17
2023-02-20T22:02:56.217Z,38.03
2023-02-20T22:05:24.016Z,38.20
2023-02-20T22:08:10.643Z,45.73
2023-02-20T22:10:56.642Z,50.57
2023-02-20T22:13:42.745Z,43.23
2023-02-20T22:16:29.208Z,44.50
2023-02-20T22:19:15.712Z,41.90
2023-02-20T22:22:01.942Z,39.50
2023-02-20T22:24:48.294Z,38.90
2023-02-20T22:27:35.123Z,41.10
2023-02-20T22:30:21.278Z,40.40
2023-02-20T22:33:11.503Z,43.53
2023-02-20T22:35:57.588Z,46.47
2023-02-20T22:38:43.697Z,44.37
2023-02-20T22:41:30.000Z,34.03
2023-02-20T22:44:16.064Z,39.63
2023-02-20T22:47:02.601Z,44.33
2023-02-20T22:49:48.966Z,42.50
2023-02-20T22:52:35.407Z,45.67
2023-02-20T22:55:21.910Z,43.17
2023-02-20T22:58:08.303Z,38.03
2023-02-20T23:00:55.194Z,48.00
2023-02-20T23:03:41.952Z,50.27
2023-02-20T23:06:28.516Z,45.00
2023-02-20T23:09:14.825Z,42.33
2023-02-20T23:12:00.970Z,44.93
2023-02-20T23:14:47.416Z,43.80
2023-02-20T23:17:36.880Z,42.20
2023-02-20T23:20:41.749Z,47.37
2023-02-20T23:23:30.582Z,52.20
2023-02-20T23:26:17.739Z,46.50
2023-02-20T23:29:05.092Z,42.53
2023-02-20T23:32:02.554Z,51.57
2023-02-20T23:34:50.787Z,49.20
2023-02-20T23:37:37.170Z,47.30
2023-02-20T23:40:36.110Z,48.97
2023-02-20T23:43:27.913Z,53.60
2023-02-20T23:46:13.957Z,53.03
2023-02-20T23:49:00.402Z,57.67
2023-02-20T23:51:46.520Z,55.70
2023-02-20T23:54:33.539Z,49.97
2023-02-20T23:57:20.169Z,50.03
